Time;durP1;ratioP1;P1;durP2;ratioP2;P2;SDS_P1;SDS_P2;PMS_P1;PMS_P2;Temp;Humidity;BMP_temperature;BMP_pressure;BME280_temperature;BME280_humidity;BME280_pressure;Samples;Min_cycle;Max_cycle;Signal;HPM_P1;HPM_P2
2023/04/04 00:00:59;;;;;;;6.57;2.70;;;;;;;-143.48;68.13;118439.88;5037388;28;20098;-69
2023/04/04 00:03:24;;;;;;;7.53;2.50;;;;;;;-143.48;67.88;118439.88;5055330;28;20051;-69
2023/04/04 00:05:50;;;;;;;3.80;2.50;;;;;;;-143.48;67.90;118439.88;5037412;28;20472;-69
2023/04/04 00:08:16;;;;;;;5.40;2.42;;;;;;;-143.48;65.87;118439.88;5055197;28;20040;-67
2023/04/04 00:10:41;;;;;;;8.95;2.88;;;;;;;-143.48;66.46;118439.88;5055433;28;20024;-69
2023/04/04 00:13:07;;;;;;;5.75;2.80;;;;;;;-143.48;66.27;118439.88;5055223;28;20491;-68
2023/04/04 00:15:34;;;;;;;5.57;2.47;;;;;;;-143.48;66.28;118439.88;5055046;28;20428;-69
2023/04/04 00:18:01;;;;;;;5.97;2.60;;;;;;;-143.48;65.84;118439.88;5055031;28;20029;-69
2023/04/04 00:20:26;;;;;;;5.10;2.63;;;;;;;-143.48;65.89;118439.88;5036978;28;20032;-69
2023/04/04 00:22:52;;;;;;;5.93;2.55;;;;;;;-143.48;67.23;118439.88;5037240;28;20075;-69
2023/04/04 00:25:17;;;;;;;6.93;2.90;;;;;;;-143.48;67.39;118439.88;5055056;28;20385;-69
2023/04/04 00:27:42;;;;;;;7.00;2.78;;;;;;;-143.48;67.81;118439.88;5054906;28;20029;-69
2023/04/04 00:30:08;;;;;;;5.30;2.63;;;;;;;-143.48;68.35;118439.88;5053948;28;20041;-69
2023/04/04 00:32:34;;;;;;;6.43;2.75;;;;;;;-143.48;68.32;118439.88;5037027;28;20037;-69
2023/04/04 00:34:59;;;;;;;8.50;2.90;;;;;;;-143.48;68.87;118439.88;5054760;28;20499;-69
2023/04/04 00:37:26;;;;;;;5.53;2.67;;;;;;;-143.48;69.03;118439.88;5054822;28;20032;-69
2023/04/04 00:39:52;;;;;;;5.03;2.22;;;;;;;-143.48;68.83;118439.88;5036631;28;20069;-68
2023/04/04 00:42:17;;;;;;;5.63;2.67;;;;;;;-143.48;69.40;118439.88;5054626;28;20123;-69
2023/04/04 00:44:43;;;;;;;5.28;2.75;;;;;;;-143.48;69.75;118439.88;5036791;28;20021;-69
2023/04/04 00:47:08;;;;;;;7.32;2.83;;;;;;;-143.48;70.05;118439.88;5036704;28;20036;-68
2023/04/04 00:49:33;;;;;;;5.05;2.70;;;;;;;-143.48;70.10;118439.88;5036612;28;20059;-69
2023/04/04 00:51:59;;;;;;;4.68;2.67;;;;;;;-143.48;70.76;118439.88;5036646;28;20021;-68
2023/04/04 00:54:24;;;;;;;8.15;2.70;;;;;;;-143.48;70.58;118439.88;5054376;28;20024;-69
2023/04/04 00:56:54;;;;;;;7.57;2.65;;;;;;;-143.48;70.80;118439.88;5036566;28;20167;-69
2023/04/04 00:59:21;;;;;;;7.63;2.80;;;;;;;-143.48;70.41;118439.88;5054397;28;20049;-68
2023/04/04 01:01:47;;;;;;;5.78;2.80;;;;;;;-143.48;70.63;118439.88;5054233;28;20437;-69
2023/04/04 01:04:12;;;;;;;8.20;2.97;;;;;;;-143.48;71.07;118439.88;5054125;28;20033;-68
2023/04/04 01:06:38;;;;;;;8.00;2.95;;;;;;;-143.48;70.18;118439.88;5054403;28;20139;-69
2023/04/04 01:09:03;;;;;;;10.55;2.58;;;;;;;-143.48;71.18;118439.88;5054345;28;20033;-69
2023/04/04 01:11:29;;;;;;;6.00;2.95;;;;;;;-143.48;70.09;118439.88;5054160;28;20062;-69
2023/04/04 01:13:54;;;;;;;7.97;2.72;;;;;;;-143.48;70.12;118439.88;5036170;28;20531;-69
2023/04/04 01:16:20;;;;;;;5.72;2.75;;;;;;;-143.48;70.18;118439.88;5053992;28;20071;-68
2023/04/04 01:18:49;;;;;;;6.95;3.40;;;;;;;-143.48;70.07;118439.88;5053730;28;20028;-68
2023/04/04 01:21:16;;;;;;;6.18;3.03;;;;;;;-143.48;70.69;118439.88;5054011;28;20024;-69
2023/04/04 01:24:00;;;;;;;5.47;2.88;;;;;;;-143.48;71.49;118439.88;5036053;28;20086;-69
2023/04/04 01:26:26;;;;;;;8.65;3.00;;;;;;;-143.48;70.97;118439.88;5053855;28;20021;-69
2023/04/04 01:28:52;;;;;;;8.45;3.20;;;;;;;-143.48;71.60;118439.88;5053734;28;20036;-67
2023/04/04 01:31:25;;;;;;;8.43;3.22;;;;;;;-143.48;71.59;118439.88;5036016;28;20534;-68
2023/04/04 01:34:01;;;;;;;7.90;3.30;;;;;;;-143.48;72.21;118439.88;5053722;28;20476;-68
2023/04/04 01:36:36;;;;;;;5.88;3.15;;;;;;;-143.48;72.32;118439.88;5053527;28;20499;-68
2023/04/04 01:39:14;;;;;;;8.80;3.10;;;;;;;-143.48;72.13;118439.88;5053555;28;20044;-69
2023/04/04 01:41:41;;;;;;;5.88;2.97;;;;;;;-143.48;72.54;118439.88;5053194;28;20462;-68
2023/04/04 01:44:08;;;;;;;6.55;3.03;;;;;;;-143.48;72.59;118439.88;5035650;28;20033;-69
2023/04/04 01:46:35;;;;;;;6.35;2.88;;;;;;;-143.48;72.42;118439.88;5035551;28;20075;-68
2023/04/04 01:49:00;;;;;;;9.45;3.60;;;;;;;-143.48;72.55;118439.88;5053554;28;20078;-69
2023/04/04 01:51:25;;;;;;;7.65;3.47;;;;;;;-143.48;71.88;118439.88;5035536;28;20024;-69
2023/04/04 01:53:51;;;;;;;7.30;3.20;;;;;;;-143.48;71.82;118439.88;5035551;28;20524;-68
2023/04/04 01:56:16;;;;;;;7.18;3.80;;;;;;;-143.48;72.68;118439.88;5053341;28;20493;-68
2023/04/04 01:58:42;;;;;;;7.05;3.50;;;;;;;-143.48;72.64;118439.88;5053350;28;20037;-69
2023/04/04 02:01:08;;;;;;;5.70;3.10;;;;;;;-143.48;72.31;118439.88;5035361;28;20032;-69
2023/04/04 02:03:33;;;;;;;6.28;3.10;;;;;;;-143.48;72.15;118439.88;5035340;28;20027;-69
2023/04/04 02:05:59;;;;;;;6.82;3.20;;;;;;;-143.48;73.35;118439.88;5053124;28;20473;-69
2023/04/04 02:08:24;;;;;;;6.63;3.20;;;;;;;-143.48;73.22;118439.88;5053167;28;20021;-69
2023/04/04 02:10:49;;;;;;;7.70;3.47;;;;;;;-143.48;72.22;118439.88;5035258;28;20059;-69
2023/04/04 02:13:15;;;;;;;6.90;3.55;;;;;;;-143.48;72.56;118439.88;5053135;28;20021;-69
2023/04/04 02:15:41;;;;;;;7.10;3.50;;;;;;;-143.48;73.42;118439.88;5053118;28;20388;-68
2023/04/04 02:18:06;;;;;;;6.63;3.05;;;;;;;-143.48;73.32;118439.88;5035207;28;20079;-68
2023/04/04 02:20:32;;;;;;;6.65;3.45;;;;;;;-143.48;72.93;118439.88;5052967;28;20183;-69
2023/04/04 02:22:57;;;;;;;7.45;3.40;;;;;;;-143.48;72.96;118439.88;5035310;28;20495;-69
2023/04/04 02:25:24;;;;;;;8.20;3.60;;;;;;;-143.48;72.40;118439.88;5035200;28;20549;-69
2023/04/04 02:27:49;;;;;;;6.43;3.50;;;;;;;-143.48;72.72;118439.88;5053098;28;20049;-69
2023/04/04 02:30:14;;;;;;;6.80;3.53;;;;;;;-143.48;72.41;118439.88;5035594;28;20052;-68
2023/04/04 02:32:40;;;;;;;5.47;3.13;;;;;;;-143.48;72.63;118439.88;5035746;28;20079;-69
2023/04/04 02:35:05;;;;;;;8.52;3.80;;;;;;;-143.48;72.79;118439.88;5054047;28;20477;-69
2023/04/04 02:37:31;;;;;;;7.13;3.85;;;;;;;-143.48;72.64;118439.88;5053943;28;20021;-69
2023/04/04 02:39:56;;;;;;;9.20;3.60;;;;;;;-143.48;72.41;118439.88;5053479;28;20183;-69
2023/04/04 02:42:21;;;;;;;8.07;3.88;;;;;;;-143.48;71.80;118439.88;5035799;28;20119;-68
2023/04/04 02:44:47;;;;;;;6.55;3.85;;;;;;;-143.48;72.76;118439.88;5035884;28;20056;-68
2023/04/04 02:47:12;;;;;;;7.88;3.63;;;;;;;-143.48;73.43;118439.88;5054250;28;20025;-68
2023/04/04 02:49:38;;;;;;;8.43;3.72;;;;;;;-143.48;72.90;118439.88;5036401;28;20107;-68
2023/04/04 02:52:03;;;;;;;11.20;4.25;;;;;;;-143.48;72.90;118439.88;5054288;28;20028;-69
2023/04/04 02:54:29;;;;;;;9.48;4.03;;;;;;;-143.48;72.63;118439.88;5057440;28;20024;-68
2023/04/04 02:56:54;;;;;;;8.07;3.90;;;;;;;-143.48;72.58;118439.88;5057937;28;20029;-69
2023/04/04 02:59:20;;;;;;;8.65;3.90;;;;;;;-143.48;73.40;118439.88;5058381;28;20488;-69
2023/04/04 03:01:45;;;;;;;8.07;3.88;;;;;;;-143.48;72.50;118439.88;5058338;28;20442;-68
2023/04/04 03:04:11;;;;;;;8.52;3.95;;;;;;;-143.48;73.33;118439.88;5058630;28;20067;-69
2023/04/04 03:06:37;;;;;;;6.75;4.10;;;;;;;-143.48;73.77;118439.88;5039961;28;20032;-68
2023/04/04 03:09:03;;;;;;;8.95;4.07;;;;;;;-143.48;74.54;118439.88;5056572;28;20476;-67
2023/04/04 03:11:29;;;;;;;9.98;4.18;;;;;;;-143.48;74.49;118439.88;5056550;28;20143;-68
2023/04/04 03:13:55;;;;;;;7.20;4.03;;;;;;;-143.48;74.48;118439.88;5056474;28;20536;-69
2023/04/04 03:16:21;;;;;;;8.80;4.30;;;;;;;-143.48;74.05;118439.88;5056175;28;20377;-69
2023/04/04 03:18:46;;;;;;;9.27;4.28;;;;;;;-143.48;74.63;118439.88;5056510;28;20037;-68
2023/04/04 03:21:12;;;;;;;6.57;3.90;;;;;;;-143.48;73.87;118439.88;5056166;28;20108;-67
2023/04/04 03:23:37;;;;;;;6.68;3.80;;;;;;;-143.48;74.05;118439.88;5038163;28;20025;-68
2023/04/04 03:26:03;;;;;;;7.63;3.95;;;;;;;-143.48;75.03;118439.88;5038226;28;20021;-69
2023/04/04 03:28:28;;;;;;;6.53;3.85;;;;;;;-143.48;74.98;118439.88;5038161;28;20048;-68
2023/04/04 03:30:53;;;;;;;10.30;4.07;;;;;;;-143.48;74.96;118439.88;5056032;28;20392;-68
2023/04/04 03:33:20;;;;;;;9.52;4.15;;;;;;;-143.48;74.23;118439.88;5056135;28;20090;-68
2023/04/04 03:35:46;;;;;;;10.80;4.30;;;;;;;-143.48;75.00;118439.88;5056023;28;20020;-69
2023/04/04 03:38:12;;;;;;;11.45;4.78;;;;;;;-143.48;75.23;118439.88;5055947;28;20044;-70
2023/04/04 03:40:37;;;;;;;10.07;4.15;;;;;;;-143.48;75.55;118439.88;5055675;28;20037;-68
2023/04/04 03:43:05;;;;;;;13.60;4.30;;;;;;;-143.48;76.09;118439.88;5055812;28;20106;-68
2023/04/04 03:45:33;;;;;;;9.55;4.10;;;;;;;-143.48;75.50;118439.88;5055789;28;20017;-68
2023/04/04 03:47:58;;;;;;;11.13;4.38;;;;;;;-143.48;76.02;118439.88;5055699;28;20025;-68
2023/04/04 03:50:23;;;;;;;10.57;4.57;;;;;;;-143.48;75.55;118439.88;5037708;28;20116;-68
2023/04/04 03:52:49;;;;;;;9.93;4.50;;;;;;;-143.48;75.75;118439.88;5037732;28;20021;-68
2023/04/04 03:55:15;;;;;;;8.70;4.20;;;;;;;-143.48;75.61;118439.88;5055553;28;20027;-68
2023/04/04 03:57:40;;;;;;;10.98;4.45;;;;;;;-143.48;75.10;118439.88;5037699;28;20535;-68
2023/04/04 04:00:06;;;;;;;7.97;4.50;;;;;;;-143.48;75.78;118439.88;5055416;28;20071;-68
2023/04/04 04:02:31;;;;;;;11.88;4.63;;;;;;;-143.48;75.99;118439.88;5055490;28;20157;-69
2023/04/04 04:04:56;;;;;;;7.40;4.25;;;;;;;-143.48;76.56;118439.88;5054135;28;20031;-69
2023/04/04 04:07:22;;;;;;;9.57;4.63;;;;;;;-143.48;76.77;118439.88;5055369;28;20384;-69
2023/04/04 04:09:47;;;;;;;7.28;4.47;;;;;;;-143.48;76.66;118439.88;5037283;28;20021;-68
2023/04/04 04:12:13;;;;;;;9.00;4.00;;;;;;;-143.48;77.04;118439.88;5037368;28;20025;-69
2023/04/04 04:14:38;;;;;;;13.82;4.53;;;;;;;-143.48;77.30;118439.88;5037385;28;20059;-70
2023/04/04 04:17:03;;;;;;;8.07;4.38;;;;;;;-143.48;77.31;118439.88;5055173;28;20425;-68
2023/04/04 04:19:28;;;;;;;10.27;4.68;;;;;;;-143.48;78.14;118439.88;5037135;28;20395;-67
2023/04/04 04:21:54;;;;;;;13.00;4.75;;;;;;;-143.48;77.54;118439.88;5055040;28;20063;-69
2023/04/04 04:24:19;;;;;;;8.23;4.47;;;;;;;-143.48;77.30;118439.88;5055311;28;20021;-68
2023/04/04 04:26:45;;;;;;;10.65;4.93;;;;;;;-143.48;77.48;118439.88;5054943;28;20468;-69
2023/04/04 04:29:10;;;;;;;13.70;5.50;;;;;;;-143.48;78.12;118439.88;5037054;28;20059;-68
2023/04/04 04:31:36;;;;;;;15.75;6.32;;;;;;;-143.48;78.45;118439.88;5055160;28;20025;-68
2023/04/04 04:34:04;;;;;;;16.05;7.47;;;;;;;-143.48;78.15;118439.88;5054866;28;20032;-68
2023/04/04 04:36:30;;;;;;;15.18;8.10;;;;;;;-143.48;78.56;118439.88;5036882;28;20021;-68
2023/04/04 04:38:55;;;;;;;10.85;5.90;;;;;;;-143.48;78.64;118439.88;5036871;28;20052;-69
2023/04/04 04:41:20;;;;;;;14.18;6.30;;;;;;;-143.48;78.20;118439.88;5054543;28;20060;-68
2023/04/04 04:43:46;;;;;;;12.02;5.80;;;;;;;-143.48;78.54;118439.88;5053392;28;20098;-69
2023/04/04 04:46:11;;;;;;;13.07;5.30;;;;;;;-143.48;78.71;118439.88;5036711;28;20033;-69
2023/04/04 04:48:36;;;;;;;10.07;5.38;;;;;;;-143.48;78.51;118439.88;5054583;28;20031;-67
2023/04/04 04:51:03;;;;;;;11.20;5.13;;;;;;;-143.48;79.07;118439.88;5054591;28;20473;-68
2023/04/04 04:53:28;;;;;;;9.77;5.00;;;;;;;-143.48;79.13;118439.88;5054487;28;20099;-68
2023/04/04 04:55:54;;;;;;;10.57;5.45;;;;;;;-143.48;79.48;118439.88;5054340;28;20494;-69
2023/04/04 04:58:22;;;;;;;14.18;5.63;;;;;;;-143.48;78.69;118439.88;5036564;28;20021;-67
2023/04/04 05:00:48;;;;;;;12.25;4.97;;;;;;;-143.48;78.79;118439.88;5036414;28;20078;-68
2023/04/04 05:03:13;;;;;;;13.30;5.60;;;;;;;-143.48;79.05;118439.88;5036426;28;20024;-68
2023/04/04 05:05:41;;;;;;;13.25;5.05;;;;;;;-143.48;78.61;118439.88;5054137;28;20079;-68
2023/04/04 05:08:06;;;;;;;9.60;5.28;;;;;;;-143.48;78.88;118439.88;5054201;28;20035;-68
2023/04/04 05:10:31;;;;;;;11.93;6.10;;;;;;;-143.48;78.61;118439.88;5036219;28;20028;-69
2023/04/04 05:12:57;;;;;;;9.85;5.47;;;;;;;-143.48;78.96;118439.88;5054199;28;20025;-69
2023/04/04 05:15:24;;;;;;;10.85;5.65;;;;;;;-143.48;78.67;118439.88;5053586;28;20028;-69
2023/04/04 05:17:50;;;;;;;10.70;6.00;;;;;;;-143.48;78.69;118439.88;5036059;28;20031;-69
2023/04/04 05:20:15;;;;;;;12.55;5.00;;;;;;;-143.48;77.69;118439.88;5053859;28;20040;-69
2023/04/04 05:22:44;;;;;;;10.68;5.10;;;;;;;-143.48;77.89;118439.88;5036020;28;20445;-69
2023/04/04 05:25:12;;;;;;;8.50;4.72;;;;;;;-143.48;78.12;118439.88;5053860;28;20040;-69
2023/04/04 05:27:39;;;;;;;9.63;5.18;;;;;;;-143.48;77.93;118439.88;5053804;28;20021;-69
2023/04/04 05:30:06;;;;;;;10.43;5.55;;;;;;;-143.48;77.51;118439.88;5035872;28;20017;-69
2023/04/04 05:32:32;;;;;;;10.02;5.00;;;;;;;-143.48;77.43;118439.88;5035874;28;20564;-69
2023/04/04 05:34:57;;;;;;;12.20;5.40;;;;;;;-143.48;77.87;118439.88;5035674;28;20110;-67
2023/04/04 05:37:22;;;;;;;8.80;5.43;;;;;;;-143.48;77.72;118439.88;5035678;28;20110;-69
2023/04/04 05:39:48;;;;;;;11.07;5.97;;;;;;;-143.48;77.50;118439.88;5035341;28;20400;-67
2023/04/04 05:42:13;;;;;;;14.18;6.80;;;;;;;-143.48;78.15;118439.88;5053726;28;20056;-68
2023/04/04 05:44:38;;;;;;;10.70;6.30;;;;;;;-143.48;78.12;118439.88;5053532;28;20027;-68
2023/04/04 05:47:03;;;;;;;15.70;6.32;;;;;;;-143.48;77.27;118439.88;5053466;28;20104;-69
2023/04/04 05:49:29;;;;;;;12.07;6.32;;;;;;;-143.48;77.64;118439.88;5053303;28;20032;-69
2023/04/04 05:51:57;;;;;;;10.90;6.75;;;;;;;-143.48;77.57;118439.88;5053365;28;20025;-69
2023/04/04 05:54:22;;;;;;;13.50;6.47;;;;;;;-143.48;77.27;118439.88;5053695;28;20032;-68
2023/04/04 05:56:47;;;;;;;11.18;5.63;;;;;;;-143.48;77.02;118439.88;5035269;28;20033;-68
2023/04/04 05:59:13;;;;;;;10.95;5.57;;;;;;;-143.48;77.45;118439.88;5053108;28;20025;-68
2023/04/04 06:01:39;;;;;;;9.73;5.32;;;;;;;-143.48;76.94;118439.88;5053129;28;20029;-69
2023/04/04 06:04:05;;;;;;;9.70;5.28;;;;;;;-143.48;76.76;118439.88;5053253;28;20029;-69
2023/04/04 06:06:31;;;;;;;12.13;5.38;;;;;;;-143.48;76.65;118439.88;5035275;28;20048;-69
2023/04/04 06:08:56;;;;;;;10.38;5.32;;;;;;;-143.48;76.75;118439.88;5035060;28;20509;-69
2023/04/04 06:11:22;;;;;;;14.05;5.45;;;;;;;-143.48;75.75;118439.88;5052996;28;20024;-70
2023/04/04 06:13:47;;;;;;;12.02;5.45;;;;;;;-143.48;75.90;118439.88;5035017;28;20468;-70
2023/04/04 06:16:12;;;;;;;10.27;5.47;;;;;;;-143.48;76.59;118439.88;5052979;28;20032;-68
2023/04/04 06:18:38;;;;;;;10.88;5.90;;;;;;;-143.48;75.64;118439.88;5035129;28;20025;-68
2023/04/04 06:21:03;;;;;;;9.93;5.45;;;;;;;-143.48;75.54;118439.88;5034868;28;20067;-68
2023/04/04 06:23:28;;;;;;;10.85;5.28;;;;;;;-143.48;76.41;118439.88;5035135;28;20033;-68
2023/04/04 06:25:54;;;;;;;10.15;5.30;;;;;;;-143.48;76.26;118439.88;5034062;28;20036;-70
2023/04/04 06:28:19;;;;;;;10.90;5.25;;;;;;;-143.48;75.93;118439.88;5033959;28;20064;-71
2023/04/04 06:30:46;;;;;;;11.02;5.30;;;;;;;-143.48;76.18;118439.88;5052781;28;20388;-70
2023/04/04 06:33:11;;;;;;;11.13;5.55;;;;;;;-143.48;76.22;118439.88;5034891;28;20595;-70
2023/04/04 06:35:37;;;;;;;10.15;5.35;;;;;;;-143.48;76.05;118439.88;5034883;28;20051;-70
2023/04/04 06:38:04;;;;;;;10.60;5.38;;;;;;;-143.48;76.04;118439.88;5052642;28;20028;-68
2023/04/04 06:40:29;;;;;;;10.15;5.30;;;;;;;-143.48;75.46;118439.88;5052369;28;20037;-69
2023/04/04 06:42:57;;;;;;;10.85;5.60;;;;;;;-143.48;75.22;118439.88;5052700;28;20017;-69
2023/04/04 06:45:26;;;;;;;10.98;5.55;;;;;;;-143.48;74.35;118439.88;5052576;28;20102;-70
2023/04/04 06:47:52;;;;;;;11.88;5.40;;;;;;;-143.48;73.14;118439.88;5034583;28;20021;-69
2023/04/04 06:50:18;;;;;;;12.85;5.47;;;;;;;-143.48;73.59;118439.88;5052695;28;20027;-69
2023/04/04 06:52:43;;;;;;;13.82;6.18;;;;;;;-143.48;74.12;118439.88;5052127;28;20514;-69
2023/04/04 06:55:09;;;;;;;15.30;6.55;;;;;;;-143.48;72.82;118439.88;5034574;28;20506;-69
2023/04/04 06:57:35;;;;;;;13.40;5.80;;;;;;;-143.48;70.44;118439.88;5052627;28;20033;-70
2023/04/04 07:00:01;;;;;;;12.32;5.47;;;;;;;-143.48;69.30;118439.88;5052754;28;20025;-69
2023/04/04 07:02:26;;;;;;;10.48;5.05;;;;;;;-143.48;66.25;118439.88;5034760;28;20021;-70
2023/04/04 07:04:51;;;;;;;12.38;5.50;;;;;;;-143.48;55.93;118439.88;5053289;28;20154;-70
2023/04/04 07:07:17;;;;;;;12.02;5.80;;;;;;;-143.48;48.52;118439.88;5035115;28;20021;-69
2023/04/04 07:09:43;;;;;;;12.43;5.38;;;;;;;-143.48;44.42;118439.88;5052911;28;20036;-69
2023/04/04 07:12:08;;;;;;;10.40;5.28;;;;;;;-143.48;42.92;118439.88;5053295;28;20500;-69
2023/04/04 07:14:33;;;;;;;13.55;4.97;;;;;;;-143.48;43.12;118439.88;5053268;28;20473;-70
2023/04/04 07:16:59;;;;;;;10.52;4.80;;;;;;;-143.48;44.23;118439.88;5052846;28;20029;-70
2023/04/04 07:19:27;;;;;;;8.90;4.50;;;;;;;-143.48;42.79;118439.88;5053941;28;20057;-69
2023/04/04 07:21:53;;;;;;;10.48;4.35;;;;;;;-143.48;42.54;118439.88;5055003;28;20032;-70
2023/04/04 07:24:18;;;;;;;10.02;4.50;;;;;;;-143.48;40.01;118439.88;5055002;28;20033;-69
2023/04/04 07:26:47;;;;;;;10.23;4.50;;;;;;;-143.48;41.50;118439.88;5056181;28;20021;-70
2023/04/04 07:29:12;;;;;;;9.13;4.40;;;;;;;-143.48;40.85;118439.88;5035350;28;20036;-69
2023/04/04 07:31:38;;;;;;;8.13;3.80;;;;;;;-143.48;39.91;118439.88;5053192;28;20021;-70
2023/04/04 07:34:04;;;;;;;10.98;4.00;;;;;;;-143.48;40.03;118439.88;5053033;28;20025;-70
2023/04/04 07:36:29;;;;;;;6.13;3.65;;;;;;;-143.48;40.96;118439.88;5053461;28;20036;-70
2023/04/04 07:38:54;;;;;;;7.32;3.90;;;;;;;-143.48;41.53;118439.88;5037402;28;20087;-71
2023/04/04 07:41:21;;;;;;;7.85;3.90;;;;;;;-143.48;40.18;118439.88;5038328;28;20052;-70
2023/04/04 07:43:47;;;;;;;6.43;3.72;;;;;;;-143.48;37.47;118439.88;5038075;28;20033;-71
2023/04/04 07:46:13;;;;;;;8.82;3.97;;;;;;;-143.48;37.53;118439.88;5056269;28;20025;-70
2023/04/04 07:48:38;;;;;;;6.88;3.30;;;;;;;-143.48;37.24;118439.88;5056105;28;20079;-71
2023/04/04 07:51:04;;;;;;;6.75;3.60;;;;;;;-143.48;37.25;118439.88;5056379;28;20028;-70
2023/04/04 07:53:29;;;;;;;6.25;3.40;;;;;;;-143.48;37.10;118439.88;5038210;28;20016;-70
2023/04/04 07:55:55;;;;;;;7.07;3.40;;;;;;;-143.48;36.02;118439.88;5056182;28;20107;-70
2023/04/04 07:58:21;;;;;;;5.25;3.10;;;;;;;-143.48;35.76;118439.88;5037960;28;20359;-70
2023/04/04 08:00:46;;;;;;;7.32;3.40;;;;;;;-143.48;36.08;118439.88;5055050;28;20456;-70
2023/04/04 08:03:12;;;;;;;9.48;3.78;;;;;;;-143.48;35.59;118439.88;5054170;28;20029;-71
2023/04/04 08:05:37;;;;;;;8.50;3.42;;;;;;;-143.48;35.95;118439.88;5036620;28;20333;-71
2023/04/04 08:08:02;;;;;;;6.30;3.20;;;;;;;-143.48;35.36;118439.88;5053927;28;20024;-71
2023/04/04 08:10:28;;;;;;;10.90;3.53;;;;;;;-143.48;34.06;118439.88;5054018;28;20483;-70
2023/04/04 08:12:53;;;;;;;6.32;3.20;;;;;;;-143.48;33.52;118439.88;5035913;28;20025;-71
2023/04/04 08:15:19;;;;;;;6.00;3.15;;;;;;;-143.48;33.80;118439.88;5036507;28;20031;-71
2023/04/04 08:17:44;;;;;;;7.28;3.50;;;;;;;-143.48;33.73;118439.88;5037464;28;20053;-70
2023/04/04 08:20:10;;;;;;;6.00;3.10;;;;;;;-143.48;33.67;118439.88;5055760;28;20479;-71
2023/04/04 08:22:36;;;;;;;5.55;2.92;;;;;;;-143.48;34.06;118439.88;5037546;28;20381;-69
2023/04/04 08:25:02;;;;;;;5.70;2.75;;;;;;;-143.48;32.76;118439.88;5037655;28;20090;-70
2023/04/04 08:27:27;;;;;;;5.35;2.60;;;;;;;-143.48;32.39;118439.88;5055410;28;20104;-71
2023/04/04 08:29:52;;;;;;;5.28;2.55;;;;;;;-143.48;30.16;118439.88;5055753;28;20449;-71
2023/04/04 08:32:18;;;;;;;6.90;2.67;;;;;;;-143.48;29.53;118439.88;5037608;28;20063;-70
2023/04/04 08:34:43;;;;;;;5.80;2.88;;;;;;;-143.48;29.39;118439.88;5037307;28;20024;-71
2023/04/04 08:37:09;;;;;;;5.90;2.38;;;;;;;-143.48;30.65;118439.88;5037103;28;20031;-70
2023/04/04 08:39:34;;;;;;;4.38;2.00;;;;;;;-143.48;29.91;118439.88;5036967;28;20082;-70
2023/04/04 08:42:04;;;;;;;4.68;1.90;;;;;;;-143.48;30.00;118439.88;5055279;28;20381;-70
2023/04/04 08:44:32;;;;;;;7.05;2.50;;;;;;;-143.48;30.75;118439.88;5055129;28;20082;-71
2023/04/04 08:47:06;;;;;;;5.40;2.30;;;;;;;-143.48;30.89;118439.88;5054941;28;20040;-71
2023/04/04 08:49:36;;;;;;;7.90;2.20;;;;;;;-143.48;29.72;118439.88;5054096;28;20415;-70
2023/04/04 08:52:03;;;;;;;4.75;1.85;;;;;;;-143.48;31.38;118439.88;5036651;28;20491;-70
2023/04/04 08:54:29;;;;;;;5.50;2.30;;;;;;;-143.48;30.97;118439.88;5054865;28;20063;-71
2023/04/04 08:56:55;;;;;;;5.28;2.10;;;;;;;-143.48;30.74;118439.88;5037158;28;20021;-72
2023/04/04 08:59:21;;;;;;;5.38;2.28;;;;;;;-143.48;31.66;118439.88;5054884;28;20294;-71
2023/04/04 09:01:46;;;;;;;4.70;2.30;;;;;;;-143.48;31.19;118439.88;5036755;28;20047;-70
2023/04/04 09:04:12;;;;;;;7.32;2.00;;;;;;;-143.48;29.58;118439.88;5054492;28;20063;-70
2023/04/04 09:06:38;;;;;;;8.65;2.22;;;;;;;-143.48;30.33;118439.88;5036492;28;20472;-70
2023/04/04 09:09:03;;;;;;;7.38;2.10;;;;;;;-143.48;31.50;118439.88;5036824;28;20494;-70
2023/04/04 09:11:32;;;;;;;5.93;2.20;;;;;;;-143.48;32.09;118439.88;5054554;28;20495;-70
2023/04/04 09:14:01;;;;;;;7.25;2.75;;;;;;;-143.48;31.63;118439.88;5054648;28;20029;-70
2023/04/04 09:16:27;;;;;;;5.28;2.17;;;;;;;-143.48;32.34;118439.88;5036591;28;20028;-70
2023/04/04 09:18:52;;;;;;;8.85;2.17;;;;;;;-143.48;31.63;118439.88;5035875;28;20435;-71
2023/04/04 09:21:18;;;;;;;5.50;2.00;;;;;;;-143.48;31.52;118439.88;5035979;28;20020;-70
2023/04/04 09:23:43;;;;;;;6.55;2.47;;;;;;;-143.48;32.34;118439.88;5053861;28;20067;-70
2023/04/04 09:26:09;;;;;;;5.07;2.30;;;;;;;-143.48;31.47;118439.88;5053906;28;20016;-71
2023/04/04 09:28:34;;;;;;;6.97;2.67;;;;;;;-143.48;32.90;118439.88;5053802;28;20095;-71
2023/04/04 09:31:03;;;;;;;6.30;2.50;;;;;;;-143.48;32.70;118439.88;5053640;28;20407;-71
2023/04/04 09:33:30;;;;;;;7.95;2.75;;;;;;;-143.48;32.37;118439.88;5035813;28;20032;-70
2023/04/04 09:36:11;;;;;;;6.07;2.63;;;;;;;-143.48;32.87;118439.88;5053644;28;20473;-71
2023/04/04 09:38:39;;;;;;;7.00;2.75;;;;;;;-143.48;32.08;118439.88;5035898;28;20020;-71
2023/04/04 09:41:10;;;;;;;7.82;2.90;;;;;;;-143.48;32.69;118439.88;5053254;28;20041;-70
2023/04/04 09:43:38;;;;;;;5.90;2.67;;;;;;;-143.48;32.43;118439.88;5035209;28;20055;-70
2023/04/04 09:46:05;;;;;;;7.45;2.83;;;;;;;-143.48;31.83;118439.88;5035311;28;20024;-70
2023/04/04 09:48:33;;;;;;;8.43;3.03;;;;;;;-143.48;31.99;118439.88;5035444;28;20494;-71
2023/04/04 09:50:59;;;;;;;8.05;3.15;;;;;;;-143.48;31.88;118439.88;5035418;28;20023;-71
2023/04/04 09:53:24;;;;;;;5.65;2.70;;;;;;;-143.48;32.13;118439.88;5053093;28;20033;-71
2023/04/04 09:55:51;;;;;;;5.22;2.65;;;;;;;-143.48;31.88;118439.88;5051235;28;20029;-71
2023/04/04 09:58:23;;;;;;;7.50;2.50;;;;;;;-143.48;32.04;118439.88;5033775;28;20379;-71
2023/04/04 10:00:51;;;;;;;9.00;2.90;;;;;;;-143.48;31.84;118439.88;5033668;28;20017;-70
2023/04/04 10:03:20;;;;;;;6.13;2.75;;;;;;;-143.48;33.35;118439.88;5051337;28;20029;-70
2023/04/04 10:05:46;;;;;;;6.55;2.67;;;;;;;-143.48;33.21;118439.88;5051664;28;20025;-70
2023/04/04 10:08:16;;;;;;;6.22;2.95;;;;;;;-143.48;33.00;118439.88;5051807;28;20025;-71
2023/04/04 10:10:47;;;;;;;7.55;2.90;;;;;;;-143.48;32.96;118439.88;5035005;28;20165;-71
2023/04/04 10:13:12;;;;;;;6.65;3.03;;;;;;;-143.48;33.40;118439.88;5052801;28;20056;-71
2023/04/04 10:15:37;;;;;;;6.57;2.83;;;;;;;-143.48;34.04;118439.88;5052990;28;20021;-71
2023/04/04 10:18:04;;;;;;;12.73;2.90;;;;;;;-143.48;33.49;118439.88;5051308;28;20506;-72
2023/04/04 10:20:31;;;;;;;6.63;2.90;;;;;;;-143.48;33.48;118439.88;5052640;28;20029;-70
2023/04/04 10:22:58;;;;;;;7.32;3.00;;;;;;;-143.48;34.01;118439.88;5034904;28;20036;-72
2023/04/04 10:25:24;;;;;;;5.30;2.80;;;;;;;-143.48;34.58;118439.88;5052587;28;20110;-71
2023/04/04 10:27:49;;;;;;;6.90;3.05;;;;;;;-143.48;34.10;118439.88;5052801;28;20047;-70
2023/04/04 10:30:15;;;;;;;7.35;2.97;;;;;;;-143.48;34.58;118439.88;5051427;28;20111;-71
2023/04/04 10:32:56;;;;;;;4.70;2.70;;;;;;;-143.48;34.50;118439.88;5035111;28;20017;-71
2023/04/04 10:35:24;;;;;;;6.18;3.10;;;;;;;-143.48;33.65;118439.88;5053711;28;20033;-71
2023/04/04 10:37:57;;;;;;;5.90;3.05;;;;;;;-143.48;34.21;118439.88;5035191;28;20079;-71
2023/04/04 10:40:26;;;;;;;6.88;2.92;;;;;;;-143.48;34.07;118439.88;5052658;28;20053;-71
2023/04/04 10:42:52;;;;;;;7.63;3.10;;;;;;;-143.48;34.46;118439.88;5052982;28;20452;-71
2023/04/04 10:45:18;;;;;;;8.15;3.00;;;;;;;-143.48;34.40;118439.88;5052714;28;20021;-71
2023/04/04 10:47:44;;;;;;;5.30;3.10;;;;;;;-143.48;32.82;118439.88;5053420;28;20495;-72
2023/04/04 10:50:11;;;;;;;6.57;2.83;;;;;;;-143.48;34.20;118439.88;5035079;28;20480;-70
2023/04/04 10:52:38;;;;;;;6.45;3.08;;;;;;;-143.48;32.99;118439.88;5052462;28;20025;-70
2023/04/04 10:55:07;;;;;;;8.30;2.80;;;;;;;-143.48;32.92;118439.88;5034617;28;20028;-71
2023/04/04 10:57:36;;;;;;;8.43;3.28;;;;;;;-143.48;31.99;118439.88;5052479;28;20033;-71
2023/04/04 11:00:03;;;;;;;5.53;2.90;;;;;;;-143.48;32.08;118439.88;5052566;28;20029;-71
2023/04/04 11:03:01;;;;;;;7.90;3.08;;;;;;;-143.48;33.75;118439.88;5034613;28;20029;-71